createdAt,value
2022-10-16T00:01:17.182Z,94.64
2022-10-16T00:03:44.896Z,95.32
2022-10-16T00:06:12.263Z,94.01
2022-10-16T00:08:39.819Z,93.63
2022-10-16T00:11:11.905Z,91.81
2022-10-16T00:13:41.071Z,92.45
2022-10-16T00:16:08.736Z,93.76
2022-10-16T00:18:38.327Z,94.68
2022-10-16T00:21:10.059Z,95.21
2022-10-16T00:23:38.309Z,95.81
2022-10-16T00:26:07.126Z,96.75
2022-10-16T00:28:36.660Z,94.92
2022-10-16T00:31:05.103Z,97.39
2022-10-16T00:33:32.525Z,95.77
2022-10-16T00:36:00.284Z,94.48
2022-10-16T00:38:27.696Z,97.46
2022-10-16T00:40:55.382Z,98.55
2022-10-16T00:43:41.428Z,100.00
2022-10-16T00:46:15.589Z,100.00
2022-10-16T00:48:43.701Z,100.00
2022-10-16T00:51:10.991Z,100.00
2022-10-16T00:53:38.789Z,100.00
2022-10-16T00:56:06.280Z,100.00
2022-10-16T00:58:33.722Z,99.56
2022-10-16T01:01:01.177Z,98.92
2022-10-16T01:03:33.242Z,98.99
2022-10-16T01:06:09.128Z,99.47
2022-10-16T01:08:58.807Z,99.10
2022-10-16T01:11:38.412Z,100.00
2022-10-16T01:14:16.534Z,100.00
2022-10-16T01:17:04.174Z,99.02
2022-10-16T01:19:32.236Z,100.00
2022-10-16T01:21:59.658Z,100.00
2022-10-16T01:24:29.991Z,100.00
2022-10-16T01:27:03.667Z,100.00
2022-10-16T01:29:51.469Z,100.00
2022-10-16T01:32:24.956Z,100.00
2022-10-16T01:34:54.090Z,100.00
2022-10-16T01:37:33.410Z,100.00
2022-10-16T01:40:01.743Z,100.00
2022-10-16T01:42:31.622Z,100.00
2022-10-16T01:44:58.926Z,100.00
2022-10-16T01:47:26.852Z,100.00
2022-10-16T01:49:55.213Z,100.00
2022-10-16T01:52:25.040Z,100.00
2022-10-16T01:54:53.780Z,100.00
2022-10-16T01:57:21.509Z,100.00
2022-10-16T01:59:51.659Z,100.00
2022-10-16T02:02:19.080Z,100.00
2022-10-16T02:04:47.765Z,100.00
2022-10-16T02:07:15.660Z,100.00
2022-10-16T02:09:42.940Z,100.00
2022-10-16T02:12:29.722Z,100.00
2022-10-16T02:14:57.099Z,100.00
2022-10-16T02:17:24.590Z,100.00
2022-10-16T02:19:52.523Z,100.00
2022-10-16T02:22:23.305Z,100.00
2022-10-16T02:25:11.785Z,100.00
2022-10-16T02:27:45.164Z,100.00
2022-10-16T02:30:14.702Z,100.00
2022-10-16T02:32:43.199Z,100.00
2022-10-16T02:35:10.667Z,100.00
2022-10-16T02:37:38.197Z,100.00
2022-10-16T02:40:08.368Z,100.00
2022-10-16T02:42:37.616Z,100.00
2022-10-16T02:45:05.770Z,100.00
2022-10-16T02:47:34.201Z,100.00
2022-10-16T02:50:01.815Z,100.00
2022-10-16T02:52:29.745Z,100.00
2022-10-16T02:54:57.264Z,100.00
2022-10-16T02:57:25.058Z,100.00
2022-10-16T02:59:52.539Z,100.00
2022-10-16T03:02:20.372Z,100.00
2022-10-16T03:04:47.662Z,100.00
2022-10-16T03:07:18.701Z,100.00
2022-10-16T03:09:46.039Z,100.00
2022-10-16T03:12:15.057Z,100.00
2022-10-16T03:14:42.643Z,100.00
2022-10-16T03:17:09.948Z,100.00
2022-10-16T03:19:38.613Z,100.00
2022-10-16T03:22:06.023Z,100.00
2022-10-16T03:24:33.307Z,100.00
2022-10-16T03:27:01.182Z,100.00
2022-10-16T03:29:30.455Z,100.00
2022-10-16T03:31:57.928Z,100.00
2022-10-16T03:34:26.835Z,100.00
2022-10-16T03:36:54.074Z,100.00
2022-10-16T03:39:21.531Z,100.00
2022-10-16T03:41:48.872Z,100.00
2022-10-16T03:44:16.573Z,100.00
2022-10-16T03:46:43.902Z,100.00
2022-10-16T03:49:11.204Z,100.00
2022-10-16T03:51:39.077Z,100.00
2022-10-16T03:54:06.448Z,100.00
2022-10-16T03:56:34.111Z,100.00
2022-10-16T03:59:02.387Z,100.00
2022-10-16T04:01:29.839Z,100.00
2022-10-16T04:03:57.092Z,100.00
2022-10-16T04:06:24.934Z,100.00
2022-10-16T04:08:52.567Z,100.00
2022-10-16T04:11:19.982Z,100.00
2022-10-16T04:13:47.332Z,100.00
2022-10-16T04:16:17.608Z,100.00
2022-10-16T04:18:44.938Z,100.00
2022-10-16T04:21:16.679Z,100.00
2022-10-16T04:23:45.314Z,100.00
2022-10-16T04:26:12.689Z,100.00
2022-10-16T04:28:40.169Z,100.00
2022-10-16T04:31:07.654Z,100.00
2022-10-16T04:33:35.023Z,100.00
2022-10-16T04:36:02.508Z,100.00
2022-10-16T04:38:29.961Z,100.00
2022-10-16T04:40:57.267Z,100.00
2022-10-16T04:43:25.190Z,100.00
2022-10-16T04:45:52.932Z,100.00
2022-10-16T04:48:20.295Z,100.00
2022-10-16T04:50:51.739Z,100.00
2022-10-16T04:53:23.469Z,100.00
2022-10-16T04:55:51.068Z,100.00
2022-10-16T04:58:18.997Z,100.00
2022-10-16T05:00:47.342Z,100.00
2022-10-16T05:03:14.903Z,100.00
2022-10-16T05:05:46.117Z,100.00
2022-10-16T05:08:13.820Z,100.00
2022-10-16T05:10:44.141Z,100.00
2022-10-16T05:13:12.964Z,100.00
2022-10-16T05:15:40.364Z,100.00
2022-10-16T05:18:07.865Z,100.00
2022-10-16T05:20:35.192Z,100.00
2022-10-16T05:23:02.651Z,100.00
2022-10-16T05:25:30.181Z,100.00
2022-10-16T05:27:57.567Z,100.00
2022-10-16T05:30:25.050Z,100.00
2022-10-16T05:32:53.388Z,100.00
2022-10-16T05:35:20.968Z,100.00
2022-10-16T05:37:48.563Z,100.00
2022-10-16T05:40:17.130Z,100.00
2022-10-16T05:42:44.396Z,100.00
2022-10-16T05:45:12.532Z,100.00
2022-10-16T05:47:39.899Z,100.00
2022-10-16T05:50:08.343Z,99.19
2022-10-16T05:52:35.873Z,100.00
2022-10-16T05:55:03.580Z,100.00
2022-10-16T05:57:31.145Z,99.93
2022-10-16T05:59:58.701Z,100.00
2022-10-16T06:02:26.047Z,97.45
2022-10-16T06:04:54.903Z,95.87
2022-10-16T06:07:23.458Z,98.07
2022-10-16T06:09:51.869Z,97.76
2022-10-16T06:12:19.395Z,96.91
2022-10-16T06:14:49.804Z,94.97
2022-10-16T06:17:20.149Z,95.12
2022-10-16T06:19:48.134Z,96.24
2022-10-16T06:22:15.465Z,93.87
2022-10-16T06:24:44.245Z,93.16
2022-10-16T06:27:11.537Z,94.74
2022-10-16T06:29:38.942Z,94.31
2022-10-16T06:32:06.420Z,94.07
2022-10-16T06:34:35.251Z,91.79
2022-10-16T06:37:02.915Z,90.41
2022-10-16T06:39:32.713Z,91.26
2022-10-16T06:44:38.110Z,89.96
2022-10-16T06:47:05.630Z,89.09
2022-10-16T06:49:33.245Z,87.69
2022-10-16T06:52:00.879Z,87.75
2022-10-16T06:54:28.504Z,88.79
2022-10-16T06:57:01.056Z,88.89
2022-10-16T06:59:29.114Z,89.53
2022-10-16T07:01:56.807Z,90.72
2022-10-16T07:04:24.210Z,87.13
2022-10-16T07:06:52.801Z,83.80
2022-10-16T07:09:20.493Z,80.73
2022-10-16T07:11:50.272Z,78.86
2022-10-16T07:14:18.526Z,79.51
2022-10-16T07:16:46.203Z,78.59
2022-10-16T07:19:15.590Z,76.56
2022-10-16T07:21:43.476Z,75.55
2022-10-16T07:24:15.148Z,72.83
2022-10-16T07:26:43.304Z,65.28
2022-10-16T07:29:17.894Z,53.87
2022-10-16T07:31:45.548Z,45.99
2022-10-16T07:34:13.326Z,40.97
2022-10-16T07:39:14.687Z,38.83
2022-10-16T07:41:42.802Z,38.79
2022-10-16T07:44:10.593Z,35.96
2022-10-16T07:46:38.232Z,37.69
2022-10-16T07:49:05.575Z,35.82
2022-10-16T07:51:33.045Z,35.45
2022-10-16T07:54:00.586Z,35.38
2022-10-16T07:56:28.241Z,34.00
2022-10-16T07:58:57.336Z,34.15
2022-10-16T08:01:24.779Z,34.96
2022-10-16T08:03:52.552Z,32.79
2022-10-16T08:06:23.571Z,36.01
2022-10-16T08:08:54.418Z,33.87
2022-10-16T08:11:21.744Z,34.92
2022-10-16T08:13:52.170Z,33.04
2022-10-16T08:16:21.344Z,33.09
2022-10-16T08:18:48.732Z,31.58
2022-10-16T08:21:20.380Z,32.75
2022-10-16T08:23:53.061Z,31.60
2022-10-16T08:26:24.749Z,32.80
2022-10-16T08:28:53.185Z,32.75
2022-10-16T08:31:21.066Z,32.13
2022-10-16T08:33:48.973Z,32.63
2022-10-16T08:36:16.329Z,32.63
2022-10-16T08:38:45.090Z,32.96
2022-10-16T08:41:32.269Z,33.15
2022-10-16T08:44:15.766Z,35.55
2022-10-16T08:46:53.013Z,35.13
2022-10-16T08:49:25.771Z,34.93
2022-10-16T08:51:53.231Z,32.97
2022-10-16T08:54:32.435Z,35.68
2022-10-16T08:57:08.758Z,33.37
2022-10-16T08:59:38.267Z,35.97
2022-10-16T09:02:13.445Z,35.07
2022-10-16T09:04:44.246Z,34.94
2022-10-16T09:07:11.690Z,35.20
2022-10-16T09:09:45.257Z,36.03
2022-10-16T09:12:20.683Z,35.98
2022-10-16T09:15:07.853Z,37.54
2022-10-16T09:17:36.524Z,36.79
2022-10-16T09:20:05.438Z,38.47
2022-10-16T09:22:33.221Z,39.92
2022-10-16T09:25:00.899Z,39.27
2022-10-16T09:27:28.800Z,38.47
2022-10-16T09:29:59.669Z,39.53
2022-10-16T09:32:28.000Z,38.29
2022-10-16T09:34:57.393Z,38.14
2022-10-16T09:37:27.401Z,38.71
2022-10-16T09:39:56.041Z,39.10
2022-10-16T09:42:33.163Z,38.88
2022-10-16T09:45:00.588Z,38.90
2022-10-16T09:47:29.058Z,39.17
2022-10-16T09:49:57.241Z,38.02
2022-10-16T09:52:25.594Z,38.89
2022-10-16T09:54:53.781Z,38.53
2022-10-16T09:57:21.822Z,39.03
2022-10-16T09:59:52.666Z,39.77
2022-10-16T10:02:40.425Z,38.79
2022-10-16T10:05:07.972Z,37.75
2022-10-16T10:07:37.137Z,38.67
2022-10-16T10:10:05.555Z,38.61
2022-10-16T10:12:37.573Z,38.54
2022-10-16T10:15:06.044Z,39.01
2022-10-16T10:17:33.879Z,38.43
2022-10-16T10:20:02.083Z,39.76
2022-10-16T10:22:41.120Z,39.15
2022-10-16T10:25:14.978Z,37.54
2022-10-16T10:27:54.974Z,37.16
2022-10-16T10:30:26.564Z,36.76
2022-10-16T10:32:54.146Z,37.50
2022-10-16T10:35:37.877Z,34.85
2022-10-16T10:38:28.461Z,35.29
2022-10-16T10:40:55.834Z,36.30
2022-10-16T10:43:29.099Z,36.54
2022-10-16T10:45:59.747Z,35.88
2022-10-16T10:51:05.418Z,36.92
2022-10-16T10:53:43.131Z,37.82
2022-10-16T10:56:17.754Z,37.41
2022-10-16T10:58:57.251Z,37.68
2022-10-16T11:01:34.019Z,38.23
2022-10-16T11:04:05.959Z,37.86
2022-10-16T11:06:34.608Z,38.20
2022-10-16T11:09:11.663Z,38.83
2022-10-16T11:11:41.793Z,37.54
2022-10-16T11:14:19.978Z,37.63
2022-10-16T11:16:55.111Z,38.84
2022-10-16T11:19:42.950Z,38.24
2022-10-16T11:22:31.827Z,38.95
2022-10-16T11:25:01.092Z,38.95
2022-10-16T11:27:52.283Z,39.07
2022-10-16T11:30:27.291Z,38.36
2022-10-16T11:33:27.719Z,37.37
2022-10-16T11:35:58.173Z,37.66
2022-10-16T11:38:28.504Z,37.96
2022-10-16T11:40:58.192Z,38.63
2022-10-16T11:43:37.383Z,39.09
2022-10-16T11:46:25.056Z,38.43
2022-10-16T11:49:03.637Z,38.12
2022-10-16T11:51:44.531Z,39.15
2022-10-16T11:54:11.961Z,39.53
2022-10-16T11:56:39.876Z,38.94
2022-10-16T11:59:09.585Z,39.51
2022-10-16T12:01:42.114Z,40.42
2022-10-16T12:04:28.782Z,40.32
2022-10-16T12:06:59.080Z,40.00
2022-10-16T12:09:31.635Z,40.12
2022-10-16T12:12:00.929Z,40.42
2022-10-16T12:14:28.442Z,41.37
2022-10-16T12:16:56.842Z,39.78
2022-10-16T12:19:25.112Z,39.80
2022-10-16T12:21:53.982Z,40.53
2022-10-16T12:24:35.379Z,41.42
2022-10-16T12:27:03.700Z,41.42
2022-10-16T12:29:34.195Z,41.37
2022-10-16T12:32:02.185Z,42.40
2022-10-16T12:34:35.687Z,42.26
2022-10-16T12:37:21.780Z,42.13
2022-10-16T12:39:49.482Z,42.37
2022-10-16T12:42:29.908Z,42.13
2022-10-16T12:44:58.010Z,42.61
2022-10-16T12:47:36.383Z,42.79
2022-10-16T12:50:09.043Z,43.00
2022-10-16T12:52:39.158Z,44.04
2022-10-16T12:55:07.085Z,43.64
2022-10-16T12:57:39.044Z,42.48
2022-10-16T13:00:09.567Z,43.02
2022-10-16T13:02:39.899Z,42.79
2022-10-16T13:05:16.349Z,43.12
2022-10-16T13:07:46.782Z,43.02
2022-10-16T13:10:14.209Z,43.36
2022-10-16T13:13:00.789Z,43.91
2022-10-16T13:15:41.108Z,44.31
2022-10-16T13:18:14.740Z,43.69
2022-10-16T13:20:48.352Z,43.68
2022-10-16T13:23:28.220Z,43.72
2022-10-16T13:26:01.585Z,43.37
2022-10-16T13:28:31.642Z,43.60
2022-10-16T13:30:59.845Z,43.98
2022-10-16T13:33:27.800Z,43.56
2022-10-16T13:35:56.423Z,44.91
2022-10-16T13:38:28.236Z,44.35
2022-10-16T13:41:19.164Z,44.06
2022-10-16T13:43:52.905Z,44.05
2022-10-16T13:46:21.026Z,44.16
2022-10-16T13:49:05.204Z,43.97
2022-10-16T13:51:33.096Z,44.71
2022-10-16T13:54:00.672Z,45.09
2022-10-16T13:56:31.907Z,44.47
2022-10-16T13:59:00.112Z,44.73
2022-10-16T14:01:45.711Z,45.56
2022-10-16T14:04:13.484Z,45.12
2022-10-16T14:06:47.276Z,46.00
2022-10-16T14:09:14.702Z,45.52
2022-10-16T14:11:54.773Z,45.81
2022-10-16T14:14:22.705Z,46.04
2022-10-16T14:16:51.834Z,46.19
2022-10-16T14:19:21.973Z,46.17
2022-10-16T14:21:50.210Z,45.95
2022-10-16T14:24:26.232Z,46.68
2022-10-16T14:26:56.037Z,46.53
2022-10-16T14:29:23.971Z,46.62
2022-10-16T14:32:06.653Z,46.66
2022-10-16T14:34:37.865Z,48.28
2022-10-16T14:37:22.681Z,47.41
2022-10-16T14:39:52.897Z,47.24
2022-10-16T14:42:20.896Z,47.43
2022-10-16T14:44:48.395Z,47.63
2022-10-16T14:47:17.314Z,47.88
2022-10-16T14:49:44.724Z,47.68
2022-10-16T14:52:13.080Z,47.46
2022-10-16T14:54:40.479Z,47.61
2022-10-16T14:57:15.194Z,48.15
2022-10-16T14:59:42.797Z,48.07
2022-10-16T15:02:23.297Z,48.24
2022-10-16T15:04:50.785Z,48.22
2022-10-16T15:07:18.219Z,48.78
2022-10-16T15:09:49.107Z,48.73
2022-10-16T15:12:20.048Z,48.99
2022-10-16T15:14:47.434Z,48.98
2022-10-16T15:17:17.434Z,49.05
2022-10-16T15:19:47.444Z,49.43
2022-10-16T15:22:15.701Z,49.40
2022-10-16T15:24:43.159Z,49.68
2022-10-16T15:27:10.682Z,50.43
2022-10-16T15:29:38.033Z,50.24
2022-10-16T15:32:05.639Z,50.42
2022-10-16T15:34:32.908Z,50.69
2022-10-16T15:37:00.949Z,50.71
2022-10-16T15:39:28.260Z,51.15
2022-10-16T15:41:55.801Z,51.87
2022-10-16T15:44:31.058Z,54.71
2022-10-16T15:46:59.663Z,54.15
2022-10-16T15:49:27.003Z,53.81
2022-10-16T15:51:56.063Z,53.70
2022-10-16T15:54:23.952Z,54.66
2022-10-16T15:56:51.459Z,54.20
2022-10-16T15:59:22.471Z,54.25
2022-10-16T16:01:50.162Z,56.63
2022-10-16T16:04:42.719Z,54.19
2022-10-16T16:07:08.446Z,54.25
2022-10-16T16:09:36.208Z,55.20
2022-10-16T16:12:04.050Z,55.21
2022-10-16T16:14:33.858Z,55.85
2022-10-16T16:17:03.264Z,57.77
2022-10-16T16:19:30.909Z,58.80
2022-10-16T16:22:00.009Z,60.02
2022-10-16T16:24:28.082Z,59.72
2022-10-16T16:26:55.525Z,57.00
2022-10-16T16:29:23.410Z,57.54
2022-10-16T16:31:51.123Z,57.90
2022-10-16T16:34:18.511Z,57.75
2022-10-16T16:36:56.593Z,56.20
2022-10-16T16:39:27.323Z,56.86
2022-10-16T16:41:56.309Z,56.22
2022-10-16T16:44:23.644Z,56.40
2022-10-16T16:46:51.207Z,56.81
2022-10-16T16:49:18.653Z,56.72
2022-10-16T16:51:46.647Z,57.16
2022-10-16T16:54:15.175Z,56.97
2022-10-16T16:56:46.899Z,57.17
2022-10-16T16:59:15.095Z,57.79
2022-10-16T17:01:43.815Z,58.77
2022-10-16T17:04:11.529Z,58.75
2022-10-16T17:06:38.990Z,57.97
2022-10-16T17:09:07.651Z,57.90
2022-10-16T17:11:34.994Z,59.11
2022-10-16T17:14:09.212Z,58.40
2022-10-16T17:16:40.451Z,59.11
2022-10-16T17:19:08.467Z,59.56
2022-10-16T17:21:35.912Z,59.30
2022-10-16T17:24:03.899Z,59.58
2022-10-16T17:26:32.291Z,59.55
2022-10-16T17:29:01.502Z,59.90
2022-10-16T17:31:32.775Z,58.85
2022-10-16T17:34:00.302Z,59.09
2022-10-16T17:36:29.799Z,58.87
2022-10-16T17:39:01.917Z,58.84
2022-10-16T17:41:29.686Z,58.04
2022-10-16T17:43:57.461Z,58.66
2022-10-16T17:46:25.356Z,58.49
2022-10-16T17:48:54.666Z,58.17
2022-10-16T17:51:24.050Z,59.42
2022-10-16T17:53:52.290Z,58.94
2022-10-16T17:56:24.371Z,58.43
2022-10-16T17:58:52.295Z,59.22
2022-10-16T18:01:20.965Z,59.45
2022-10-16T18:03:55.564Z,58.88
2022-10-16T18:06:25.593Z,59.07
2022-10-16T18:08:54.316Z,60.33
2022-10-16T18:11:23.653Z,59.09
2022-10-16T18:13:54.697Z,59.58
2022-10-16T18:16:22.100Z,60.36
2022-10-16T18:18:52.261Z,61.01
2022-10-16T18:21:20.378Z,61.56
2022-10-16T18:23:51.890Z,60.60
2022-10-16T18:26:20.353Z,61.14
2022-10-16T18:28:48.925Z,59.96
2022-10-16T18:31:17.840Z,60.91
2022-10-16T18:33:48.729Z,60.86
2022-10-16T18:36:16.693Z,60.08
2022-10-16T18:38:44.168Z,59.31
2022-10-16T18:41:11.495Z,58.74
2022-10-16T18:43:40.679Z,59.43
2022-10-16T18:46:08.884Z,58.93
2022-10-16T18:48:38.182Z,60.04
2022-10-16T18:51:09.148Z,59.89
2022-10-16T18:53:37.483Z,60.60
2022-10-16T18:56:06.824Z,60.20
2022-10-16T18:58:35.333Z,61.65
2022-10-16T19:01:03.850Z,61.61
2022-10-16T19:03:34.381Z,61.78
2022-10-16T19:06:02.920Z,63.49
2022-10-16T19:08:33.924Z,63.29
2022-10-16T19:11:22.496Z,64.40
2022-10-16T19:13:50.926Z,62.99
2022-10-16T19:16:21.485Z,63.58
2022-10-16T19:18:49.627Z,65.30
2022-10-16T19:21:18.738Z,67.97
2022-10-16T19:23:47.263Z,65.14
2022-10-16T19:26:15.589Z,65.97
2022-10-16T19:28:45.759Z,66.61
2022-10-16T19:31:15.332Z,68.87
2022-10-16T19:33:42.795Z,67.87
2022-10-16T19:36:10.323Z,69.35
2022-10-16T19:38:38.175Z,69.46
2022-10-16T19:41:08.849Z,71.72
2022-10-16T19:43:36.334Z,71.27
2022-10-16T19:46:08.541Z,71.08
2022-10-16T19:48:36.563Z,74.08
2022-10-16T19:51:04.362Z,75.41
2022-10-16T19:53:32.463Z,75.80
2022-10-16T19:56:00.552Z,76.30
2022-10-16T19:58:28.107Z,73.46
2022-10-16T20:00:55.779Z,74.15
2022-10-16T20:03:23.701Z,73.11
2022-10-16T20:05:52.109Z,74.75
2022-10-16T20:08:21.745Z,72.57
2022-10-16T20:10:52.546Z,71.76
2022-10-16T20:13:20.014Z,70.97
2022-10-16T20:15:48.713Z,71.60
2022-10-16T20:18:17.520Z,73.96
2022-10-16T20:20:45.661Z,75.78
2022-10-16T20:23:13.096Z,76.07
2022-10-16T20:25:41.165Z,75.12
2022-10-16T20:28:09.298Z,76.89
2022-10-16T20:30:37.207Z,75.72
2022-10-16T20:33:05.438Z,75.38
2022-10-16T20:35:36.827Z,75.75
2022-10-16T20:38:04.190Z,75.12
2022-10-16T20:40:34.216Z,73.91
2022-10-16T20:43:02.249Z,75.57
2022-10-16T20:45:30.202Z,77.13
2022-10-16T20:47:57.867Z,77.67
2022-10-16T20:50:25.793Z,79.49
2022-10-16T20:52:53.200Z,80.72
2022-10-16T20:55:20.691Z,80.71
2022-10-16T20:57:48.219Z,80.93
2022-10-16T21:00:15.827Z,84.54
2022-10-16T21:02:43.375Z,85.04
2022-10-16T21:05:11.005Z,82.01
2022-10-16T21:07:38.400Z,83.30
2022-10-16T21:10:06.319Z,86.77
2022-10-16T21:12:33.937Z,85.84
2022-10-16T21:15:14.569Z,83.32
2022-10-16T21:17:42.756Z,84.29
2022-10-16T21:20:10.548Z,84.46
2022-10-16T21:22:38.172Z,83.61
2022-10-16T21:25:05.912Z,83.44
2022-10-16T21:27:39.667Z,82.76
2022-10-16T21:30:07.853Z,85.45
2022-10-16T21:32:38.608Z,83.68
2022-10-16T21:35:06.278Z,86.63
2022-10-16T21:37:34.497Z,89.51
2022-10-16T21:40:02.135Z,89.43
2022-10-16T21:42:31.028Z,90.74
2022-10-16T21:44:58.573Z,89.45
2022-10-16T21:47:26.345Z,90.60
2022-10-16T21:49:54.469Z,90.19
2022-10-16T21:52:21.974Z,89.97
2022-10-16T21:54:50.619Z,89.91
2022-10-16T21:57:17.952Z,92.41
2022-10-16T21:59:49.487Z,92.30
2022-10-16T22:02:17.444Z,90.95
2022-10-16T22:04:45.819Z,90.09
2022-10-16T22:07:13.158Z,92.93
2022-10-16T22:09:40.829Z,92.49
2022-10-16T22:12:08.271Z,92.23
2022-10-16T22:14:39.662Z,93.35
2022-10-16T22:17:07.563Z,89.94
2022-10-16T22:19:36.851Z,91.27
2022-10-16T22:22:04.304Z,93.04
2022-10-16T22:27:04.608Z,94.54
2022-10-16T22:29:32.265Z,93.12
2022-10-16T22:32:03.436Z,95.99
2022-10-16T22:34:31.702Z,97.05
2022-10-16T22:36:59.094Z,98.30
2022-10-16T22:39:28.285Z,97.43
2022-10-16T22:41:55.600Z,97.59
2022-10-16T22:44:23.127Z,98.38
2022-10-16T22:46:50.621Z,97.54
2022-10-16T22:49:20.442Z,97.37
2022-10-16T22:51:48.080Z,99.30
2022-10-16T22:54:15.916Z,100.00
2022-10-16T22:56:43.604Z,100.00
2022-10-16T22:59:11.267Z,100.00
2022-10-16T23:01:40.635Z,100.00
2022-10-16T23:04:08.304Z,100.00
2022-10-16T23:06:35.910Z,100.00
2022-10-16T23:09:04.086Z,100.00
2022-10-16T23:11:33.389Z,100.00
2022-10-16T23:14:01.918Z,100.00
2022-10-16T23:16:32.033Z,100.00
2022-10-16T23:19:01.515Z,100.00
2022-10-16T23:21:29.139Z,100.00
2022-10-16T23:23:59.180Z,100.00
2022-10-16T23:26:26.672Z,100.00
2022-10-16T23:28:55.788Z,100.00
2022-10-16T23:31:23.401Z,100.00
2022-10-16T23:33:51.410Z,100.00
2022-10-16T23:36:19.871Z,100.00
2022-10-16T23:38:47.738Z,100.00
2022-10-16T23:41:15.233Z,100.00
2022-10-16T23:43:43.400Z,100.00
2022-10-16T23:46:11.165Z,100.00
2022-10-16T23:48:39.217Z,100.00
2022-10-16T23:51:07.537Z,99.36
2022-10-16T23:53:36.281Z,100.00
2022-10-16T23:56:03.773Z,97.49
2022-10-16T23:58:31.368Z,99.47
